createdAt,value
2024-04-30T00:00:01.033Z,1020.01
2024-04-30T00:01:05.118Z,1020.02
2024-04-30T00:02:01.339Z,1019.99
2024-04-30T00:03:00.166Z,1020.01
2024-04-30T00:03:59.058Z,1020
2024-04-30T00:04:59.903Z,1019.94
2024-04-30T00:06:07.553Z,1019.95
2024-04-30T00:06:59.680Z,1019.94
2024-04-30T00:08:00.652Z,1019.97
2024-04-30T00:08:59.456Z,1019.98
2024-04-30T00:10:00.392Z,1019.95
2024-04-30T00:11:10.307Z,1019.97
2024-04-30T00:12:00.352Z,1019.92
2024-04-30T00:12:59.128Z,1019.91
2024-04-30T00:13:59.836Z,1019.94
2024-04-30T00:15:01.023Z,1019.94
2024-04-30T00:16:12.414Z,1019.93
2024-04-30T00:16:59.697Z,1019.93
2024-04-30T00:18:01.079Z,1019.91
2024-04-30T00:19:04.507Z,1019.94
2024-04-30T00:19:59.862Z,1019.87
2024-04-30T00:20:58.606Z,1019.91
2024-04-30T00:22:00.263Z,1019.92
2024-04-30T00:22:59.028Z,1019.9
2024-04-30T00:23:59.746Z,1019.88
2024-04-30T00:25:01.057Z,1019.92
2024-04-30T00:25:59.757Z,1019.91
2024-04-30T00:27:01.015Z,1019.88
2024-04-30T00:27:59.963Z,1019.85
2024-04-30T00:28:58.663Z,1019.84
2024-04-30T00:30:01.538Z,1019.84
2024-04-30T00:31:00.414Z,1019.84
2024-04-30T00:31:59.228Z,1019.82
2024-04-30T00:32:59.963Z,1019.82
2024-04-30T00:33:59.413Z,1019.81
2024-04-30T00:35:00.091Z,1019.81
2024-04-30T00:35:58.798Z,1019.79
2024-04-30T00:37:00.999Z,1019.78
2024-04-30T00:37:59.741Z,1019.8
2024-04-30T00:39:01.017Z,1019.79
2024-04-30T00:39:59.823Z,1019.77
2024-04-30T00:41:00.971Z,1019.81
2024-04-30T00:41:59.707Z,1019.8
2024-04-30T00:43:01.138Z,1019.77
2024-04-30T00:44:01.932Z,1019.77
2024-04-30T00:44:59.898Z,1019.78
2024-04-30T00:46:01.120Z,1019.77
2024-04-30T00:46:59.903Z,1019.81
2024-04-30T00:48:01.555Z,1019.78
2024-04-30T00:49:00.387Z,1019.82
2024-04-30T00:49:59.119Z,1019.81
2024-04-30T00:50:59.833Z,1019.78
2024-04-30T00:52:01.023Z,1019.8
2024-04-30T00:52:59.756Z,1019.74
2024-04-30T00:54:02.463Z,1019.76
2024-04-30T00:55:01.026Z,1019.75
2024-04-30T00:55:59.870Z,1019.74
2024-04-30T00:57:01.135Z,1019.69
2024-04-30T00:57:59.896Z,1019.67
2024-04-30T00:59:00.966Z,1019.71
2024-04-30T00:59:59.679Z,1019.75
2024-04-30T01:01:01.104Z,1019.72
2024-04-30T01:01:59.876Z,1019.74
2024-04-30T01:03:01.122Z,1019.73
2024-04-30T01:04:00.094Z,1019.74
2024-04-30T01:04:58.895Z,1019.69
2024-04-30T01:06:00.962Z,1019.66
2024-04-30T01:06:59.668Z,1019.73
2024-04-30T01:08:00.973Z,1019.73
2024-04-30T01:08:59.671Z,1019.7
2024-04-30T01:10:00.654Z,1019.66
2024-04-30T01:10:59.456Z,1019.67
2024-04-30T01:12:00.408Z,1019.67
2024-04-30T01:12:59.255Z,1019.66
2024-04-30T01:13:59.961Z,1019.6
2024-04-30T01:14:58.699Z,1019.59
2024-04-30T01:16:01.116Z,1019.65
2024-04-30T01:16:59.906Z,1019.62
2024-04-30T01:18:01.123Z,1019.63
2024-04-30T01:18:59.935Z,1019.64
2024-04-30T01:19:58.599Z,1019.67
2024-04-30T01:21:00.270Z,1019.64
2024-04-30T01:21:59.028Z,1019.64
2024-04-30T01:22:59.735Z,1019.61
2024-04-30T01:24:01.093Z,1019.67
2024-04-30T01:24:59.845Z,1019.65
2024-04-30T01:26:00.993Z,1019.62
2024-04-30T01:26:59.678Z,1019.6
2024-04-30T01:28:00.412Z,1019.57
2024-04-30T01:28:59.182Z,1019.59
2024-04-30T01:30:00.000Z,1019.55
2024-04-30T01:30:58.704Z,1019.55
2024-04-30T01:32:01.134Z,1019.54
2024-04-30T01:33:00.011Z,1019.51
2024-04-30T01:33:58.789Z,1019.54
2024-04-30T01:35:01.068Z,1019.55
2024-04-30T01:35:59.727Z,1019.5
2024-04-30T01:37:01.074Z,1019.49
2024-04-30T01:37:59.858Z,1019.47
2024-04-30T01:39:01.006Z,1019.52
2024-04-30T01:39:59.798Z,1019.45
2024-04-30T01:41:02.629Z,1019.48
2024-04-30T01:42:02.360Z,1019.42
2024-04-30T01:43:00.465Z,1019.45
2024-04-30T01:43:59.232Z,1019.43
2024-04-30T01:45:00.051Z,1019.46
2024-04-30T01:45:58.769Z,1019.39
2024-04-30T01:47:04.837Z,1019.38
2024-04-30T01:48:01.198Z,1019.35
2024-04-30T01:49:00.159Z,1019.42
2024-04-30T01:49:58.897Z,1019.38
2024-04-30T01:51:01.458Z,1019.36
2024-04-30T01:52:07.485Z,1019.38
2024-04-30T01:53:00.157Z,1019.38
2024-04-30T01:53:58.823Z,1019.39
2024-04-30T01:55:01.191Z,1019.35
2024-04-30T01:56:00.078Z,1019.4
2024-04-30T01:57:08.709Z,1019.39
2024-04-30T01:58:01.184Z,1019.39
2024-04-30T01:58:59.863Z,1019.35
2024-04-30T02:00:01.087Z,1019.35
2024-04-30T02:00:59.821Z,1019.34
2024-04-30T02:02:11.020Z,1019.32
2024-04-30T02:03:01.449Z,1019.38
2024-04-30T02:03:59.726Z,1019.36
2024-04-30T02:05:07.966Z,1019.33
2024-04-30T02:06:01.067Z,1019.32
2024-04-30T02:07:14.508Z,1019.31
2024-04-30T02:07:59.917Z,1019.3
2024-04-30T02:09:01.077Z,1019.3
2024-04-30T02:09:59.886Z,1019.3
2024-04-30T02:10:58.643Z,1019.31
2024-04-30T02:12:16.075Z,1019.29
2024-04-30T02:13:00.429Z,1019.25
2024-04-30T02:13:59.126Z,1019.27
2024-04-30T02:14:59.880Z,1019.22
2024-04-30T02:16:01.157Z,1019.23
2024-04-30T02:16:59.913Z,1019.21
2024-04-30T02:17:58.733Z,1019.26
2024-04-30T02:19:01.209Z,1019.19
2024-04-30T02:20:00.012Z,1019.24
2024-04-30T02:20:58.701Z,1019.23
2024-04-30T02:22:01.194Z,1019.19
2024-04-30T02:22:59.939Z,1019.23
2024-04-30T02:23:58.667Z,1019.27
2024-04-30T02:25:00.451Z,1019.23
2024-04-30T02:25:59.263Z,1019.23
2024-04-30T02:26:59.986Z,1019.25
2024-04-30T02:27:58.655Z,1019.22
2024-04-30T02:29:00.473Z,1019.25
2024-04-30T02:29:59.209Z,1019.22
2024-04-30T02:30:59.944Z,1019.24
2024-04-30T02:31:58.659Z,1019.21
2024-04-30T02:33:00.499Z,1019.2
2024-04-30T02:33:59.478Z,1019.18
2024-04-30T02:35:00.485Z,1019.21
2024-04-30T02:35:59.213Z,1019.19
2024-04-30T02:36:59.944Z,1019.18
2024-04-30T02:37:58.717Z,1019.18
2024-04-30T02:39:00.963Z,1019.18
2024-04-30T02:39:59.715Z,1019.15
2024-04-30T02:41:00.984Z,1019.16
2024-04-30T02:41:59.679Z,1019.16
2024-04-30T02:43:00.563Z,1019.13
2024-04-30T02:43:59.297Z,1019.22
2024-04-30T02:45:00.152Z,1019.17
2024-04-30T02:45:58.915Z,1019.17
2024-04-30T02:46:59.731Z,1019.23
2024-04-30T02:48:01.138Z,1019.2
2024-04-30T02:48:59.881Z,1019.19
2024-04-30T02:50:01.054Z,1019.16
2024-04-30T02:50:59.811Z,1019.21
2024-04-30T02:52:01.019Z,1019.16
2024-04-30T02:52:59.721Z,1019.22
2024-04-30T02:54:01.087Z,1019.12
2024-04-30T02:54:59.804Z,1019.18
2024-04-30T02:56:01.387Z,1019.13
2024-04-30T02:57:00.164Z,1019.1
2024-04-30T02:57:58.843Z,1019.1
2024-04-30T02:59:01.006Z,1019.11
2024-04-30T02:59:59.723Z,1019.12
2024-04-30T03:01:01.165Z,1019.09
2024-04-30T03:02:00.018Z,1019.09
2024-04-30T03:02:58.778Z,1019.09
2024-04-30T03:04:01.392Z,1019.09
2024-04-30T03:05:00.399Z,1019.08
2024-04-30T03:05:59.214Z,1019.07
2024-04-30T03:07:00.039Z,1019.07
2024-04-30T03:07:58.815Z,1019.09
2024-04-30T03:09:00.959Z,1019.07
2024-04-30T03:09:59.676Z,1019.06
2024-04-30T03:11:01.037Z,1019.08
2024-04-30T03:11:59.883Z,1019.05
2024-04-30T03:13:01.130Z,1019.03
2024-04-30T03:13:59.913Z,1019.06
2024-04-30T03:15:01.060Z,1019.02
2024-04-30T03:15:59.807Z,1019.05
2024-04-30T03:17:01.089Z,1019
2024-04-30T03:17:59.898Z,1019
2024-04-30T03:18:58.716Z,1019.06
2024-04-30T03:20:00.968Z,1019.04
2024-04-30T03:20:59.949Z,1019.01
2024-04-30T03:21:58.746Z,1019
2024-04-30T03:23:03.019Z,1018.97
2024-04-30T03:24:00.971Z,1019
2024-04-30T03:24:59.774Z,1019.03
2024-04-30T03:26:01.021Z,1019
2024-04-30T03:26:59.762Z,1018.99
2024-04-30T03:28:02.944Z,1019
2024-04-30T03:29:00.997Z,1018.98
2024-04-30T03:29:59.677Z,1019.01
2024-04-30T03:31:00.801Z,1019.03
2024-04-30T03:31:59.559Z,1019
2024-04-30T03:33:02.770Z,1019
2024-04-30T03:34:00.115Z,1018.99
2024-04-30T03:34:59.899Z,1019
2024-04-30T03:36:01.054Z,1019.01
2024-04-30T03:36:59.835Z,1018.99
2024-04-30T03:38:05.199Z,1018.98
2024-04-30T03:39:01.491Z,1018.99
2024-04-30T03:40:00.002Z,1018.95
2024-04-30T03:40:58.719Z,1018.97
2024-04-30T03:42:00.956Z,1018.99
2024-04-30T03:43:04.437Z,1018.98
2024-04-30T03:43:59.971Z,1018.99
2024-04-30T03:44:58.630Z,1018.94
2024-04-30T03:46:00.546Z,1018.97
2024-04-30T03:46:59.403Z,1018.96
2024-04-30T03:48:07.434Z,1018.95
2024-04-30T03:49:00.109Z,1018.96
2024-04-30T03:50:01.449Z,1019.01
2024-04-30T03:50:59.815Z,1018.98
2024-04-30T03:52:01.266Z,1019.02
2024-04-30T03:53:10.891Z,1019.01
2024-04-30T03:53:59.727Z,1019
2024-04-30T03:55:01.861Z,1019.01
2024-04-30T03:56:01.003Z,1019.05
2024-04-30T03:56:59.744Z,1019.01
2024-04-30T03:58:16.840Z,1019.05
2024-04-30T03:59:01.539Z,1018.99
2024-04-30T04:00:00.307Z,1019.08
2024-04-30T04:00:59.212Z,1019.02
2024-04-30T04:01:59.987Z,1019.06
2024-04-30T04:02:58.821Z,1019.03
2024-04-30T04:04:01.137Z,1019.03
2024-04-30T04:05:01.125Z,1019.03
2024-04-30T04:06:00.187Z,1019.05
2024-04-30T04:06:58.904Z,1019.07
2024-04-30T04:08:01.225Z,1019.04
2024-04-30T04:08:59.931Z,1019.06
2024-04-30T04:09:58.611Z,1019.06
2024-04-30T04:11:00.365Z,1019.02
2024-04-30T04:11:58.999Z,1019.04
2024-04-30T04:12:59.726Z,1019.06
2024-04-30T04:14:01.012Z,1019.06
2024-04-30T04:14:59.667Z,1018.99
2024-04-30T04:16:00.470Z,1019.02
2024-04-30T04:16:59.176Z,1019.01
2024-04-30T04:17:59.929Z,1019.02
2024-04-30T04:18:58.795Z,1019.03
2024-04-30T04:20:01.194Z,1019.03
2024-04-30T04:20:59.917Z,1019.06
2024-04-30T04:22:01.135Z,1019.03
2024-04-30T04:22:59.845Z,1019.04
2024-04-30T04:24:00.971Z,1019.05
2024-04-30T04:24:59.620Z,1019.04
2024-04-30T04:26:00.348Z,1019.08
2024-04-30T04:26:59.045Z,1019.06
2024-04-30T04:27:59.776Z,1019.07
2024-04-30T04:29:01.006Z,1019.08
2024-04-30T04:29:59.640Z,1019.07
2024-04-30T04:31:00.427Z,1019.05
2024-04-30T04:32:00.953Z,1019.04
2024-04-30T04:33:00.284Z,1019.09
2024-04-30T04:33:59.085Z,1019.03
2024-04-30T04:34:59.739Z,1019.06
2024-04-30T04:36:01.039Z,1018.99
2024-04-30T04:36:59.877Z,1019.05
2024-04-30T04:38:01.088Z,1019.03
2024-04-30T04:38:59.838Z,1018.99
2024-04-30T04:40:01.022Z,1019.05
2024-04-30T04:40:59.896Z,1019.06
2024-04-30T04:42:01.649Z,1019.04
2024-04-30T04:43:01.273Z,1019.05
2024-04-30T04:44:00.060Z,1019.05
2024-04-30T04:44:58.757Z,1019.07
2024-04-30T04:46:01.105Z,1019.06
2024-04-30T04:46:59.920Z,1019.06
2024-04-30T04:48:01.122Z,1019.07
2024-04-30T04:49:00.144Z,1019.06
2024-04-30T04:49:58.866Z,1019.03
2024-04-30T04:51:01.040Z,1019.04
2024-04-30T04:51:59.758Z,1019.02
2024-04-30T04:53:00.526Z,1019.05
2024-04-30T04:53:59.304Z,1019.02
2024-04-30T04:55:04.013Z,1019
2024-04-30T04:56:00.042Z,1019.01
2024-04-30T04:56:58.727Z,1018.98
2024-04-30T04:58:01.086Z,1018.98
2024-04-30T04:58:59.771Z,1019.02
2024-04-30T05:00:00.990Z,1019
2024-04-30T05:00:59.917Z,1018.98
2024-04-30T05:01:58.739Z,1018.95
2024-04-30T05:03:01.046Z,1018.97
2024-04-30T05:04:00.014Z,1019
2024-04-30T05:04:58.793Z,1018.97
2024-04-30T05:06:01.462Z,1018.98
2024-04-30T05:07:02.452Z,1018.95
2024-04-30T05:08:00.225Z,1018.94
2024-04-30T05:09:02.806Z,1018.96
2024-04-30T05:09:59.610Z,1018.97
2024-04-30T05:11:00.371Z,1019.01
2024-04-30T05:11:59.130Z,1018.96
2024-04-30T05:12:59.947Z,1018.98
2024-04-30T05:14:06.150Z,1018.96
2024-04-30T05:14:59.692Z,1018.96
2024-04-30T05:16:00.356Z,1018.96
2024-04-30T05:16:59.069Z,1018.98
2024-04-30T05:17:59.806Z,1019
2024-04-30T05:19:08.577Z,1018.98
2024-04-30T05:20:00.981Z,1018.93
2024-04-30T05:20:59.699Z,1018.96
2024-04-30T05:22:01.111Z,1018.95
2024-04-30T05:22:59.952Z,1018.95
2024-04-30T05:24:11.856Z,1018.87
2024-04-30T05:24:59.616Z,1018.92
2024-04-30T05:26:00.434Z,1018.92
2024-04-30T05:26:59.126Z,1018.91
2024-04-30T05:27:59.916Z,1018.89
2024-04-30T05:29:14.315Z,1018.87
2024-04-30T05:30:02.433Z,1018.94
2024-04-30T05:30:59.999Z,1018.88
2024-04-30T05:31:58.763Z,1018.88
2024-04-30T05:33:01.134Z,1018.84
2024-04-30T05:33:59.822Z,1018.89
2024-04-30T05:35:01.038Z,1018.85
2024-04-30T05:35:59.692Z,1018.9
2024-04-30T05:37:00.520Z,1018.88
2024-04-30T05:37:59.308Z,1018.81
2024-04-30T05:39:02.842Z,1018.85
2024-04-30T05:40:00.085Z,1018.88
2024-04-30T05:40:58.806Z,1018.88
2024-04-30T05:42:01.424Z,1018.88
2024-04-30T05:43:00.156Z,1018.86
2024-04-30T05:43:58.823Z,1018.83
2024-04-30T05:45:00.950Z,1018.86
2024-04-30T05:45:59.787Z,1018.85
2024-04-30T05:47:01.127Z,1018.86
2024-04-30T05:47:59.906Z,1018.86
2024-04-30T05:48:58.662Z,1018.87
2024-04-30T05:50:00.672Z,1018.88
2024-04-30T05:50:59.362Z,1018.88
2024-04-30T05:52:00.005Z,1018.87
2024-04-30T05:52:58.682Z,1018.88
2024-04-30T05:54:00.433Z,1018.87
2024-04-30T05:54:59.084Z,1018.84
2024-04-30T05:55:59.854Z,1018.84
2024-04-30T05:57:01.054Z,1018.84
2024-04-30T05:58:00.153Z,1018.82
2024-04-30T05:58:58.828Z,1018.82
2024-04-30T06:00:00.985Z,1018.87
2024-04-30T06:00:59.687Z,1018.86
2024-04-30T06:02:01.178Z,1018.84
2024-04-30T06:03:03.381Z,1018.86
2024-04-30T06:03:59.984Z,1018.88
2024-04-30T06:04:59.187Z,1018.87
2024-04-30T06:05:59.994Z,1018.86
2024-04-30T06:06:58.778Z,1018.87
2024-04-30T06:08:01.059Z,1018.91
2024-04-30T06:08:59.726Z,1018.8
2024-04-30T06:10:00.987Z,1018.81
2024-04-30T06:10:59.799Z,1018.79
2024-04-30T06:12:00.969Z,1018.81
2024-04-30T06:12:59.697Z,1018.89
2024-04-30T06:14:00.975Z,1018.89
2024-04-30T06:15:03.242Z,1018.87
2024-04-30T06:15:59.663Z,1018.83
2024-04-30T06:17:00.413Z,1018.88
2024-04-30T06:17:59.231Z,1018.81
2024-04-30T06:19:00.206Z,1018.79
2024-04-30T06:19:58.975Z,1018.81
2024-04-30T06:20:59.684Z,1018.81
2024-04-30T06:22:00.958Z,1018.82
2024-04-30T06:22:59.618Z,1018.83
2024-04-30T06:24:00.341Z,1018.8
2024-04-30T06:24:59.004Z,1018.77
2024-04-30T06:25:59.714Z,1018.77
2024-04-30T06:27:00.969Z,1018.77
2024-04-30T06:27:59.741Z,1018.76
2024-04-30T06:29:01.382Z,1018.74
2024-04-30T06:30:00.063Z,1018.74
2024-04-30T06:30:58.743Z,1018.77
2024-04-30T06:32:00.967Z,1018.72
2024-04-30T06:32:59.824Z,1018.75
2024-04-30T06:34:01.053Z,1018.72
2024-04-30T06:34:59.877Z,1018.72
2024-04-30T06:35:58.666Z,1018.76
2024-04-30T06:37:01.039Z,1018.71
2024-04-30T06:37:59.933Z,1018.67
2024-04-30T06:38:58.671Z,1018.72
2024-04-30T06:40:00.388Z,1018.74
2024-04-30T06:40:59.130Z,1018.71
2024-04-30T06:41:59.843Z,1018.71
2024-04-30T06:43:00.986Z,1018.7
2024-04-30T06:43:59.743Z,1018.72
2024-04-30T06:45:00.981Z,1018.66
2024-04-30T06:45:59.659Z,1018.68
2024-04-30T06:47:00.432Z,1018.68
2024-04-30T06:47:59.242Z,1018.66
2024-04-30T06:48:59.974Z,1018.63
2024-04-30T06:49:58.698Z,1018.63
2024-04-30T06:51:01.426Z,1018.62
2024-04-30T06:52:00.116Z,1018.62
2024-04-30T06:52:58.788Z,1018.56
2024-04-30T06:54:01.045Z,1018.59
2024-04-30T06:54:59.723Z,1018.53
2024-04-30T06:56:01.097Z,1018.51
2024-04-30T06:56:59.831Z,1018.49
2024-04-30T06:58:01.270Z,1018.52
2024-04-30T06:58:59.932Z,1018.47
2024-04-30T07:00:01.849Z,1018.46
2024-04-30T07:01:00.974Z,1018.46
2024-04-30T07:01:59.763Z,1018.5
2024-04-30T07:03:02.799Z,1018.45
2024-04-30T07:04:01.027Z,1018.47
2024-04-30T07:05:05.616Z,1018.49
2024-04-30T07:06:01.429Z,1018.44
2024-04-30T07:07:00.126Z,1018.39
2024-04-30T07:07:58.771Z,1018.46
2024-04-30T07:09:01.201Z,1018.47
2024-04-30T07:10:06.955Z,1018.39
2024-04-30T07:11:02.352Z,1018.53
2024-04-30T07:12:00.127Z,1018.47
2024-04-30T07:12:59.045Z,1018.42
2024-04-30T07:13:59.766Z,1018.4
2024-04-30T07:15:11.266Z,1018.41
2024-04-30T07:16:00.996Z,1018.42
2024-04-30T07:17:06.240Z,1018.42
2024-04-30T07:18:00.043Z,1018.38
2024-04-30T07:18:58.852Z,1018.39
2024-04-30T07:20:13.351Z,1018.4
2024-04-30T07:21:01.037Z,1018.41
2024-04-30T07:21:59.667Z,1018.37
2024-04-30T07:23:00.423Z,1018.43
2024-04-30T07:23:59.090Z,1018.42
2024-04-30T07:24:59.724Z,1018.42
2024-04-30T07:26:01.060Z,1018.37
2024-04-30T07:26:59.727Z,1018.36
2024-04-30T07:28:01.003Z,1018.32
2024-04-30T07:28:59.730Z,1018.35
2024-04-30T07:30:00.987Z,1018.38
2024-04-30T07:30:59.740Z,1018.39
2024-04-30T07:32:01.094Z,1018.37
2024-04-30T07:32:59.907Z,1018.34
2024-04-30T07:33:58.673Z,1018.34
2024-04-30T07:35:01.108Z,1018.29
2024-04-30T07:35:59.876Z,1018.34
2024-04-30T07:37:01.024Z,1018.31
2024-04-30T07:37:59.707Z,1018.32
2024-04-30T07:39:00.966Z,1018.28
2024-04-30T07:39:59.713Z,1018.29
2024-04-30T07:41:01.052Z,1018.29
2024-04-30T07:41:59.722Z,1018.31
2024-04-30T07:43:01.467Z,1018.3
2024-04-30T07:44:00.150Z,1018.28
2024-04-30T07:44:58.813Z,1018.21
2024-04-30T07:46:00.982Z,1018.25
2024-04-30T07:47:00.080Z,1018.25
2024-04-30T07:47:58.862Z,1018.24
2024-04-30T07:48:59.661Z,1018.28
2024-04-30T07:50:00.451Z,1018.26
2024-04-30T07:50:59.164Z,1018.26
2024-04-30T07:51:59.908Z,1018.24
2024-04-30T07:53:03.370Z,1018.21
2024-04-30T07:54:01.045Z,1018.23
2024-04-30T07:55:00.287Z,1018.14
2024-04-30T07:55:59.132Z,1018.12
2024-04-30T07:57:00.178Z,1018.14
2024-04-30T07:57:58.900Z,1018.14
2024-04-30T07:59:00.955Z,1018.11
2024-04-30T07:59:59.630Z,1018.1
2024-04-30T08:01:00.436Z,1018.1
2024-04-30T08:01:59.300Z,1018.07
2024-04-30T08:03:00.174Z,1018.09
2024-04-30T08:03:59.054Z,1018.13
2024-04-30T08:04:59.874Z,1018.17
2024-04-30T08:06:10.341Z,1018.1
2024-04-30T08:07:01.417Z,1018.08
2024-04-30T08:08:00.120Z,1018.07
2024-04-30T08:08:58.868Z,1018.05
2024-04-30T08:10:00.973Z,1018.07
2024-04-30T08:10:59.717Z,1018.07
2024-04-30T08:12:00.978Z,1018.04
2024-04-30T08:12:59.708Z,1018.06
2024-04-30T08:14:01.773Z,1018.06
2024-04-30T08:15:00.974Z,1018.05
2024-04-30T08:15:59.734Z,1017.96
2024-04-30T08:17:01.107Z,1018.02
2024-04-30T08:17:59.869Z,1017.98
2024-04-30T08:19:01.023Z,1018.03
2024-04-30T08:19:59.826Z,1018.02
2024-04-30T08:21:01.428Z,1018.01
2024-04-30T08:22:00.091Z,1018.03
2024-04-30T08:22:58.740Z,1018.03
2024-04-30T08:24:01.456Z,1017.94
2024-04-30T08:25:00.285Z,1017.95
2024-04-30T08:25:58.991Z,1017.94
2024-04-30T08:26:59.700Z,1017.98
2024-04-30T08:28:01.438Z,1017.97
2024-04-30T08:29:00.093Z,1017.92
2024-04-30T08:29:59.418Z,1018.02
2024-04-30T08:31:00.984Z,1017.92
2024-04-30T08:32:00.264Z,1017.96
2024-04-30T08:32:59.061Z,1017.93
2024-04-30T08:33:59.890Z,1017.95
2024-04-30T08:35:01.034Z,1017.95
2024-04-30T08:36:01.322Z,1018
2024-04-30T08:36:59.791Z,1017.98
2024-04-30T08:38:01.835Z,1018.01
2024-04-30T08:39:01.087Z,1017.96
2024-04-30T08:39:59.808Z,1018
2024-04-30T08:41:04.171Z,1017.91
2024-04-30T08:42:01.064Z,1017.97
2024-04-30T08:42:59.730Z,1017.96
2024-04-30T08:44:01.063Z,1017.97
2024-04-30T08:45:01.618Z,1018.03
2024-04-30T08:46:06.255Z,1017.96
2024-04-30T08:46:59.899Z,1017.94
2024-04-30T08:47:58.630Z,1017.93
2024-04-30T08:49:00.371Z,1018.01
2024-04-30T08:50:05.774Z,1018.01
2024-04-30T08:51:08.889Z,1018.08
2024-04-30T08:52:00.209Z,1018.03
2024-04-30T08:52:58.965Z,1018.03
2024-04-30T08:53:59.713Z,1017.95
2024-04-30T08:55:01.146Z,1018.04
2024-04-30T08:56:11.928Z,1018.05
2024-04-30T08:56:59.985Z,1017.92
2024-04-30T08:57:58.677Z,1017.97
2024-04-30T08:59:01.060Z,1017.97
2024-04-30T08:59:59.720Z,1017.99
2024-04-30T09:01:16.572Z,1017.97
2024-04-30T09:02:00.139Z,1017.96
2024-04-30T09:03:00.552Z,1017.97
2024-04-30T09:03:59.376Z,1018.03
2024-04-30T09:05:00.234Z,1017.99
2024-04-30T09:05:59.238Z,1017.93
2024-04-30T09:07:00.006Z,1018.02
2024-04-30T09:07:59.773Z,1017.94
2024-04-30T09:09:01.023Z,1018.06
2024-04-30T09:09:59.689Z,1017.97
2024-04-30T09:11:01.197Z,1017.98
2024-04-30T09:12:00.115Z,1018.02
2024-04-30T09:12:58.874Z,1017.94
2024-04-30T09:14:01.069Z,1017.98
2024-04-30T09:15:00.017Z,1017.93
2024-04-30T09:15:58.817Z,1017.85
2024-04-30T09:17:01.555Z,1017.91
2024-04-30T09:17:59.696Z,1017.96
2024-04-30T09:19:00.999Z,1017.89
2024-04-30T09:19:59.646Z,1017.95
2024-04-30T09:21:12.086Z,1017.8
2024-04-30T09:22:01.008Z,1017.9
2024-04-30T09:22:59.642Z,1017.84
2024-04-30T09:24:00.400Z,1017.83
2024-04-30T09:24:59.090Z,1017.87
2024-04-30T09:25:59.965Z,1017.79
2024-04-30T09:26:58.695Z,1017.8
2024-04-30T09:28:01.095Z,1017.84
2024-04-30T09:28:59.831Z,1017.77
2024-04-30T09:30:01.062Z,1017.74
2024-04-30T09:30:59.829Z,1017.73
2024-04-30T09:32:00.981Z,1017.71
2024-04-30T09:32:59.952Z,1017.79
2024-04-30T09:33:58.744Z,1017.79
2024-04-30T09:35:01.308Z,1017.72
2024-04-30T09:36:03.303Z,1017.72
2024-04-30T09:36:59.962Z,1017.68
2024-04-30T09:37:58.646Z,1017.67
2024-04-30T09:39:00.395Z,1017.62
2024-04-30T09:39:59.362Z,1017.67
2024-04-30T09:41:00.101Z,1017.66
2024-04-30T09:41:58.778Z,1017.59
2024-04-30T09:43:01.233Z,1017.67
2024-04-30T09:43:59.913Z,1017.58
2024-04-30T09:44:58.678Z,1017.62
2024-04-30T09:46:00.336Z,1017.57
2024-04-30T09:46:59.079Z,1017.59
2024-04-30T09:47:59.997Z,1017.58
2024-04-30T09:48:58.690Z,1017.6
2024-04-30T09:50:00.460Z,1017.63
2024-04-30T09:50:59.240Z,1017.57
2024-04-30T09:51:59.970Z,1017.56
2024-04-30T09:52:58.639Z,1017.57
2024-04-30T09:54:00.271Z,1017.58
2024-04-30T09:54:58.973Z,1017.55
2024-04-30T09:55:59.625Z,1017.5
2024-04-30T09:57:00.325Z,1017.47
2024-04-30T09:57:58.988Z,1017.48
2024-04-30T09:58:59.738Z,1017.45
2024-04-30T10:00:01.184Z,1017.49
2024-04-30T10:00:59.957Z,1017.47
2024-04-30T10:01:58.899Z,1017.4
2024-04-30T10:03:01.012Z,1017.38
2024-04-30T10:03:59.812Z,1017.41
2024-04-30T10:05:01.475Z,1017.34
2024-04-30T10:06:01.177Z,1017.39
2024-04-30T10:06:59.897Z,1017.44
2024-04-30T10:08:00.999Z,1017.38
2024-04-30T10:08:59.667Z,1017.38
2024-04-30T10:10:00.438Z,1017.37
2024-04-30T10:10:59.217Z,1017.41
2024-04-30T10:12:00.296Z,1017.35
2024-04-30T10:12:59.084Z,1017.43
2024-04-30T10:13:59.817Z,1017.48
2024-04-30T10:15:00.977Z,1017.37
2024-04-30T10:15:59.735Z,1017.43
2024-04-30T10:17:03.981Z,1017.38
2024-04-30T10:18:01.002Z,1017.36
2024-04-30T10:18:59.730Z,1017.38
2024-04-30T10:20:01.047Z,1017.27
2024-04-30T10:20:59.949Z,1017.25
2024-04-30T10:22:05.241Z,1017.25
2024-04-30T10:22:59.597Z,1017.29
2024-04-30T10:24:00.288Z,1017.22
2024-04-30T10:24:58.974Z,1017.2
2024-04-30T10:25:59.737Z,1017.26
2024-04-30T10:27:09.625Z,1017.24
2024-04-30T10:28:00.957Z,1017.24
2024-04-30T10:28:59.816Z,1017.23
2024-04-30T10:30:01.077Z,1017.16
2024-04-30T10:30:59.836Z,1017.13
2024-04-30T10:32:11.883Z,1017.12
2024-04-30T10:33:01.118Z,1017.14
2024-04-30T10:33:59.978Z,1017.11
2024-04-30T10:34:58.933Z,1017.09
2024-04-30T10:35:59.646Z,1017.18
2024-04-30T10:37:14.467Z,1017.12
2024-04-30T10:38:02.638Z,1017.13
2024-04-30T10:39:00.196Z,1017.16
2024-04-30T10:39:58.851Z,1017.13
2024-04-30T10:41:01.019Z,1017.08
2024-04-30T10:41:59.705Z,1017.11
2024-04-30T10:43:01.034Z,1017.06
2024-04-30T10:44:00.637Z,1017.07
2024-04-30T10:44:59.639Z,1017.04
2024-04-30T10:46:00.341Z,1017.04
2024-04-30T10:46:58.993Z,1017.05
2024-04-30T10:47:59.834Z,1017.02
2024-04-30T10:49:00.966Z,1017.08
2024-04-30T10:50:11.784Z,1016.93
2024-04-30T10:50:59.634Z,1016.99
2024-04-30T10:52:00.380Z,1016.96
2024-04-30T10:52:59.158Z,1016.96
2024-04-30T10:53:59.879Z,1016.94
2024-04-30T10:55:01.026Z,1016.98
2024-04-30T10:56:00.798Z,1017.02
2024-04-30T10:56:59.678Z,1016.99
2024-04-30T10:58:00.442Z,1016.95
2024-04-30T10:58:59.276Z,1016.98
2024-04-30T10:59:59.975Z,1016.93
2024-04-30T11:00:59.014Z,1016.97
2024-04-30T11:01:59.776Z,1016.92
2024-04-30T11:03:01.102Z,1016.9
2024-04-30T11:03:59.880Z,1016.96
2024-04-30T11:05:01.388Z,1016.98
2024-04-30T11:06:00.093Z,1016.96
2024-04-30T11:06:58.877Z,1016.88
2024-04-30T11:07:59.723Z,1016.99
2024-04-30T11:09:01.017Z,1016.94
2024-04-30T11:09:59.661Z,1016.98
2024-04-30T11:11:00.403Z,1016.86
2024-04-30T11:11:59.293Z,1016.85
2024-04-30T11:13:00.005Z,1016.79
2024-04-30T11:14:00.721Z,1016.85
2024-04-30T11:14:59.698Z,1016.86
2024-04-30T11:16:07.915Z,1016.75
2024-04-30T11:17:01.059Z,1016.81
2024-04-30T11:18:00.023Z,1016.81
2024-04-30T11:18:58.803Z,1016.73
2024-04-30T11:20:01.060Z,1016.81
2024-04-30T11:20:59.777Z,1016.83
2024-04-30T11:22:00.989Z,1016.83
2024-04-30T11:22:59.873Z,1016.82
2024-04-30T11:24:01.352Z,1016.78
2024-04-30T11:25:00.085Z,1016.78
2024-04-30T11:25:58.858Z,1016.78
2024-04-30T11:27:01.025Z,1016.72
2024-04-30T11:27:59.678Z,1016.75
2024-04-30T11:29:09.748Z,1016.77
2024-04-30T11:30:00.363Z,1016.7
2024-04-30T11:30:59.107Z,1016.74
2024-04-30T11:31:59.846Z,1016.74
2024-04-30T11:33:01.488Z,1016.74
2024-04-30T11:34:00.342Z,1016.7
2024-04-30T11:34:59.016Z,1016.69
2024-04-30T11:35:59.676Z,1016.65
2024-04-30T11:37:00.975Z,1016.74
2024-04-30T11:37:59.803Z,1016.63
2024-04-30T11:39:00.978Z,1016.77
2024-04-30T11:39:59.664Z,1016.73
2024-04-30T11:41:00.321Z,1016.76
2024-04-30T11:42:07.122Z,1016.66
2024-04-30T11:42:59.988Z,1016.77
2024-04-30T11:43:58.669Z,1016.67
2024-04-30T22:01:01.561Z,1014.72
2024-04-30T22:02:00.378Z,1014.7
2024-04-30T22:03:02.783Z,1014.7
2024-04-30T22:04:00.278Z,1014.71
2024-04-30T22:04:59.281Z,1014.73
2024-04-30T22:06:00.063Z,1014.7
2024-04-30T22:06:59.050Z,1014.65
2024-04-30T22:07:59.720Z,1014.67
2024-04-30T22:09:00.995Z,1014.67
2024-04-30T22:10:03.308Z,1014.69
2024-04-30T22:10:59.704Z,1014.68
2024-04-30T22:12:01.030Z,1014.67
2024-04-30T22:12:59.837Z,1014.7
2024-04-30T22:14:01.577Z,1014.72
2024-04-30T22:15:05.646Z,1014.72
2024-04-30T22:16:00.260Z,1014.68
2024-04-30T22:16:59.074Z,1014.62
2024-04-30T22:18:00.174Z,1014.65
2024-04-30T22:18:58.921Z,1014.6
2024-04-30T22:20:09.077Z,1014.61
2024-04-30T22:21:00.994Z,1014.64
2024-04-30T22:21:59.681Z,1014.54
2024-04-30T22:23:00.955Z,1014.59
2024-04-30T22:23:59.778Z,1014.61